Chester-le-Street, United Kingdom
Current Conditions -  °F | °C
As of 5:20 AM on Saturday 25 Oct 2014 (Local Time) from EGNT Reporting Station
Few Clouds Few Clouds  
Wind Chill:   Ceiling: Unl
Heat Index:   Visibility: 6mi
Dew Point:   Wind: 8mph
Humidity: 87%   Direction: 210°SSW
Pressure: 29.77"   Gusts: NA
Location:  54.86°N, 1.59°W
Report Text: EGNT 250420Z 21007KT 9999 FEW030 09/07 Q1008
Loading
Personal Weather Stations






























Interactive Weather Map
Tropical Storm Tracking
New forecast layout! Learn more

10-Day Weather Forecast

Advertisements
Track Severe Weather on mobile